sensor_id;sensor_type;location;lat;lon;timestamp;temperature;humidity
26691;DHT22;14307;51.718;8.938;2022-10-12T00:01:30;2.40;99.90
26691;DHT22;14307;51.718;8.938;2022-10-12T00:03:57;2.40;99.90
26691;DHT22;14307;51.718;8.938;2022-10-12T00:06:24;2.50;99.90
26691;DHT22;14307;51.718;8.938;2022-10-12T00:08:52;2.50;99.90
26691;DHT22;14307;51.718;8.938;2022-10-12T00:11:25;2.40;99.90
26691;DHT22;14307;51.718;8.938;2022-10-12T00:13:53;2.30;99.90
26691;DHT22;14307;51.718;8.938;2022-10-12T00:16:22;2.30;99.90
26691;DHT22;14307;51.718;8.938;2022-10-12T00:18:51;2.20;99.90
26691;DHT22;14307;51.718;8.938;2022-10-12T00:21:19;2.40;99.90
26691;DHT22;14307;51.718;8.938;2022-10-12T00:23:47;2.40;99.90
26691;DHT22;14307;51.718;8.938;2022-10-12T00:26:17;2.40;99.90
26691;DHT22;14307;51.718;8.938;2022-10-12T00:28:44;2.40;99.90
26691;DHT22;14307;51.718;8.938;2022-10-12T00:31:17;2.30;99.90
26691;DHT22;14307;51.718;8.938;2022-10-12T00:33:45;2.40;99.90
26691;DHT22;14307;51.718;8.938;2022-10-12T00:38:41;2.60;99.90
26691;DHT22;14307;51.718;8.938;2022-10-12T00:41:08;2.70;99.90
26691;DHT22;14307;51.718;8.938;2022-10-12T00:43:37;2.70;99.90
26691;DHT22;14307;51.718;8.938;2022-10-12T00:46:14;2.60;99.90
26691;DHT22;14307;51.718;8.938;2022-10-12T00:48:44;2.80;99.90
26691;DHT22;14307;51.718;8.938;2022-10-12T00:51:12;2.80;99.90
26691;DHT22;14307;51.718;8.938;2022-10-12T00:57:49;2.50;99.90
26691;DHT22;14307;51.718;8.938;2022-10-12T01:00:18;2.60;99.90
26691;DHT22;14307;51.718;8.938;2022-10-12T01:02:46;2.80;99.90
26691;DHT22;14307;51.718;8.938;2022-10-12T01:05:14;2.80;99.90
26691;DHT22;14307;51.718;8.938;2022-10-12T01:07:43;2.70;99.90
26691;DHT22;14307;51.718;8.938;2022-10-12T01:10:09;2.50;99.90
26691;DHT22;14307;51.718;8.938;2022-10-12T01:12:38;2.60;99.90
26691;DHT22;14307;51.718;8.938;2022-10-12T01:15:06;2.50;99.90
26691;DHT22;14307;51.718;8.938;2022-10-12T01:17:58;2.40;99.90
26691;DHT22;14307;51.718;8.938;2022-10-12T01:20:43;2.50;99.90
26691;DHT22;14307;51.718;8.938;2022-10-12T01:28:54;2.50;99.90
26691;DHT22;14307;51.718;8.938;2022-10-12T01:34:12;2.40;99.90
26691;DHT22;14307;51.718;8.938;2022-10-12T01:39:45;2.50;99.90
26691;DHT22;14307;51.718;8.938;2022-10-12T01:42:38;2.60;99.90
26691;DHT22;14307;51.718;8.938;2022-10-12T01:45:11;2.50;99.90
26691;DHT22;14307;51.718;8.938;2022-10-12T01:47:38;2.50;99.90
26691;DHT22;14307;51.718;8.938;2022-10-12T01:50:08;2.30;99.90
26691;DHT22;14307;51.718;8.938;2022-10-12T01:55:54;2.30;99.90
26691;DHT22;14307;51.718;8.938;2022-10-12T02:01:41;2.30;99.90
26691;DHT22;14307;51.718;8.938;2022-10-12T02:06:52;2.20;99.90
26691;DHT22;14307;51.718;8.938;2022-10-12T02:09:31;2.10;99.90
26691;DHT22;14307;51.718;8.938;2022-10-12T02:12:03;2.30;99.90
26691;DHT22;14307;51.718;8.938;2022-10-12T02:14:53;2.50;99.90
26691;DHT22;14307;51.718;8.938;2022-10-12T02:17:21;2.50;99.90
26691;DHT22;14307;51.718;8.938;2022-10-12T02:20:00;2.50;99.90
26691;DHT22;14307;51.718;8.938;2022-10-12T02:22:32;2.40;99.90
26691;DHT22;14307;51.718;8.938;2022-10-12T02:25:06;2.30;99.90
26691;DHT22;14307;51.718;8.938;2022-10-12T02:27:35;2.20;99.90
26691;DHT22;14307;51.718;8.938;2022-10-12T02:30:05;2.30;99.90
26691;DHT22;14307;51.718;8.938;2022-10-12T02:32:58;2.30;99.90
26691;DHT22;14307;51.718;8.938;2022-10-12T02:35:39;2.30;99.90
26691;DHT22;14307;51.718;8.938;2022-10-12T02:38:13;2.30;99.90
26691;DHT22;14307;51.718;8.938;2022-10-12T02:40:49;2.40;99.90
26691;DHT22;14307;51.718;8.938;2022-10-12T02:46:00;2.50;99.90
26691;DHT22;14307;51.718;8.938;2022-10-12T02:48:33;2.50;99.90
26691;DHT22;14307;51.718;8.938;2022-10-12T02:51:01;2.50;99.90
26691;DHT22;14307;51.718;8.938;2022-10-12T02:53:29;2.40;99.90
26691;DHT22;14307;51.718;8.938;2022-10-12T02:56:03;2.30;99.90
26691;DHT22;14307;51.718;8.938;2022-10-12T02:58:30;2.30;99.90
26691;DHT22;14307;51.718;8.938;2022-10-12T03:00:57;2.30;99.90
26691;DHT22;14307;51.718;8.938;2022-10-12T03:03:23;2.30;99.90
26691;DHT22;14307;51.718;8.938;2022-10-12T03:05:50;2.20;99.90
26691;DHT22;14307;51.718;8.938;2022-10-12T03:08:17;2.30;99.90
26691;DHT22;14307;51.718;8.938;2022-10-12T03:10:44;2.50;99.90
26691;DHT22;14307;51.718;8.938;2022-10-12T03:13:10;2.70;99.90
26691;DHT22;14307;51.718;8.938;2022-10-12T03:15:37;2.70;99.90
26691;DHT22;14307;51.718;8.938;2022-10-12T03:18:04;2.70;99.90
26691;DHT22;14307;51.718;8.938;2022-10-12T03:20:31;2.80;99.90
26691;DHT22;14307;51.718;8.938;2022-10-12T03:22:58;2.90;99.90
26691;DHT22;14307;51.718;8.938;2022-10-12T03:25:24;3.00;99.90
26691;DHT22;14307;51.718;8.938;2022-10-12T03:27:51;3.00;99.90
26691;DHT22;14307;51.718;8.938;2022-10-12T03:30:18;2.90;99.90
26691;DHT22;14307;51.718;8.938;2022-10-12T03:32:44;2.80;99.90
26691;DHT22;14307;51.718;8.938;2022-10-12T03:35:11;2.70;99.90
26691;DHT22;14307;51.718;8.938;2022-10-12T03:37:38;2.70;99.90
26691;DHT22;14307;51.718;8.938;2022-10-12T03:40:06;2.70;99.90
26691;DHT22;14307;51.718;8.938;2022-10-12T03:42:33;2.80;99.90
26691;DHT22;14307;51.718;8.938;2022-10-12T03:44:59;2.80;99.90
26691;DHT22;14307;51.718;8.938;2022-10-12T03:47:26;2.90;99.90
26691;DHT22;14307;51.718;8.938;2022-10-12T03:49:52;3.10;99.90
26691;DHT22;14307;51.718;8.938;2022-10-12T03:52:19;3.00;99.90
26691;DHT22;14307;51.718;8.938;2022-10-12T03:54:46;2.90;99.90
26691;DHT22;14307;51.718;8.938;2022-10-12T03:57:12;2.90;99.90
26691;DHT22;14307;51.718;8.938;2022-10-12T03:59:39;2.90;99.90
26691;DHT22;14307;51.718;8.938;2022-10-12T04:02:06;2.80;99.90
26691;DHT22;14307;51.718;8.938;2022-10-12T04:04:32;2.80;99.90
26691;DHT22;14307;51.718;8.938;2022-10-12T04:06:59;2.90;99.90
26691;DHT22;14307;51.718;8.938;2022-10-12T04:09:28;2.90;99.90
26691;DHT22;14307;51.718;8.938;2022-10-12T04:11:55;3.00;99.90
26691;DHT22;14307;51.718;8.938;2022-10-12T04:14:22;3.20;99.90
26691;DHT22;14307;51.718;8.938;2022-10-12T04:16:48;3.40;99.90
26691;DHT22;14307;51.718;8.938;2022-10-12T04:19:15;3.30;99.90
26691;DHT22;14307;51.718;8.938;2022-10-12T04:21:42;3.30;99.90
26691;DHT22;14307;51.718;8.938;2022-10-12T04:24:09;3.30;99.90
26691;DHT22;14307;51.718;8.938;2022-10-12T04:26:36;3.30;99.90
26691;DHT22;14307;51.718;8.938;2022-10-12T04:29:03;3.40;99.90
26691;DHT22;14307;51.718;8.938;2022-10-12T04:31:30;3.40;99.90
26691;DHT22;14307;51.718;8.938;2022-10-12T04:33:57;3.30;99.90
26691;DHT22;14307;51.718;8.938;2022-10-12T04:36:24;3.50;99.90
26691;DHT22;14307;51.718;8.938;2022-10-12T04:38:52;3.40;99.90
26691;DHT22;14307;51.718;8.938;2022-10-12T04:41:26;3.50;99.90
26691;DHT22;14307;51.718;8.938;2022-10-12T04:43:53;3.60;99.90
26691;DHT22;14307;51.718;8.938;2022-10-12T04:46:20;3.50;99.90
26691;DHT22;14307;51.718;8.938;2022-10-12T04:48:47;3.50;99.90
26691;DHT22;14307;51.718;8.938;2022-10-12T04:51:14;3.50;99.90
26691;DHT22;14307;51.718;8.938;2022-10-12T04:53:41;3.40;99.90
26691;DHT22;14307;51.718;8.938;2022-10-12T04:56:08;3.20;99.90
26691;DHT22;14307;51.718;8.938;2022-10-12T04:58:34;3.20;99.90
26691;DHT22;14307;51.718;8.938;2022-10-12T05:01:02;3.20;99.90
26691;DHT22;14307;51.718;8.938;2022-10-12T05:03:29;3.30;99.90
26691;DHT22;14307;51.718;8.938;2022-10-12T05:05:55;3.30;99.90
26691;DHT22;14307;51.718;8.938;2022-10-12T05:08:22;3.40;99.90
26691;DHT22;14307;51.718;8.938;2022-10-12T05:10:49;3.40;99.90
26691;DHT22;14307;51.718;8.938;2022-10-12T05:13:15;3.50;99.90
26691;DHT22;14307;51.718;8.938;2022-10-12T05:15:43;3.50;99.90
26691;DHT22;14307;51.718;8.938;2022-10-12T05:18:10;3.50;99.90
26691;DHT22;14307;51.718;8.938;2022-10-12T05:20:36;3.40;99.90
26691;DHT22;14307;51.718;8.938;2022-10-12T05:23:04;3.40;99.90
26691;DHT22;14307;51.718;8.938;2022-10-12T05:25:30;3.50;99.90
26691;DHT22;14307;51.718;8.938;2022-10-12T05:27:57;3.40;99.90
26691;DHT22;14307;51.718;8.938;2022-10-12T05:30:24;3.30;99.90
26691;DHT22;14307;51.718;8.938;2022-10-12T05:32:50;3.40;99.90
26691;DHT22;14307;51.718;8.938;2022-10-12T05:35:17;3.30;99.90
26691;DHT22;14307;51.718;8.938;2022-10-12T05:37:44;3.50;99.90
26691;DHT22;14307;51.718;8.938;2022-10-12T05:40:11;3.50;99.90
26691;DHT22;14307;51.718;8.938;2022-10-12T05:42:38;3.50;99.90
26691;DHT22;14307;51.718;8.938;2022-10-12T05:45:05;3.50;99.90
26691;DHT22;14307;51.718;8.938;2022-10-12T05:47:32;3.70;99.90
26691;DHT22;14307;51.718;8.938;2022-10-12T05:49:59;3.80;99.90
26691;DHT22;14307;51.718;8.938;2022-10-12T05:52:26;3.80;99.90
26691;DHT22;14307;51.718;8.938;2022-10-12T05:54:52;3.60;99.90
26691;DHT22;14307;51.718;8.938;2022-10-12T05:57:19;3.50;99.90
26691;DHT22;14307;51.718;8.938;2022-10-12T05:59:46;3.40;99.90
26691;DHT22;14307;51.718;8.938;2022-10-12T06:02:17;3.30;99.90
26691;DHT22;14307;51.718;8.938;2022-10-12T06:04:44;3.30;99.90
26691;DHT22;14307;51.718;8.938;2022-10-12T06:07:11;3.40;99.90
26691;DHT22;14307;51.718;8.938;2022-10-12T06:09:37;3.20;99.90
26691;DHT22;14307;51.718;8.938;2022-10-12T06:12:06;3.20;99.90
26691;DHT22;14307;51.718;8.938;2022-10-12T06:14:33;3.20;99.90
26691;DHT22;14307;51.718;8.938;2022-10-12T06:16:59;3.20;99.90
26691;DHT22;14307;51.718;8.938;2022-10-12T06:19:26;3.10;99.90
26691;DHT22;14307;51.718;8.938;2022-10-12T06:21:53;3.20;99.90
26691;DHT22;14307;51.718;8.938;2022-10-12T06:24:19;3.10;99.90
26691;DHT22;14307;51.718;8.938;2022-10-12T06:26:47;3.30;99.90
26691;DHT22;14307;51.718;8.938;2022-10-12T06:29:13;3.40;99.90
26691;DHT22;14307;51.718;8.938;2022-10-12T06:31:40;3.50;99.90
26691;DHT22;14307;51.718;8.938;2022-10-12T06:34:07;3.50;99.90
26691;DHT22;14307;51.718;8.938;2022-10-12T06:36:33;3.60;99.90
26691;DHT22;14307;51.718;8.938;2022-10-12T06:39:00;3.80;99.90
26691;DHT22;14307;51.718;8.938;2022-10-12T06:41:27;4.00;99.90
26691;DHT22;14307;51.718;8.938;2022-10-12T06:43:53;4.00;99.90
26691;DHT22;14307;51.718;8.938;2022-10-12T06:46:20;4.10;99.90
26691;DHT22;14307;51.718;8.938;2022-10-12T06:48:47;4.00;99.90
26691;DHT22;14307;51.718;8.938;2022-10-12T06:51:14;4.10;99.90
26691;DHT22;14307;51.718;8.938;2022-10-12T06:53:40;4.20;99.90
26691;DHT22;14307;51.718;8.938;2022-10-12T06:56:08;4.30;99.90
26691;DHT22;14307;51.718;8.938;2022-10-12T06:58:36;4.50;99.90
26691;DHT22;14307;51.718;8.938;2022-10-12T07:01:04;4.80;99.90
26691;DHT22;14307;51.718;8.938;2022-10-12T07:03:31;5.00;99.90
26691;DHT22;14307;51.718;8.938;2022-10-12T07:08:32;5.30;99.90
26691;DHT22;14307;51.718;8.938;2022-10-12T07:11:04;5.40;99.90
26691;DHT22;14307;51.718;8.938;2022-10-12T07:13:32;5.50;99.90
26691;DHT22;14307;51.718;8.938;2022-10-12T07:15:58;5.60;99.90
26691;DHT22;14307;51.718;8.938;2022-10-12T07:18:25;5.70;99.90
26691;DHT22;14307;51.718;8.938;2022-10-12T07:20:55;5.80;99.90
26691;DHT22;14307;51.718;8.938;2022-10-12T07:23:27;5.80;99.90
26691;DHT22;14307;51.718;8.938;2022-10-12T07:25:54;5.90;99.90
26691;DHT22;14307;51.718;8.938;2022-10-12T07:28:21;6.00;99.90
26691;DHT22;14307;51.718;8.938;2022-10-12T07:30:48;6.20;99.90
26691;DHT22;14307;51.718;8.938;2022-10-12T07:33:15;6.40;99.90
26691;DHT22;14307;51.718;8.938;2022-10-12T07:35:41;6.50;99.90
26691;DHT22;14307;51.718;8.938;2022-10-12T07:38:28;6.60;99.90
26691;DHT22;14307;51.718;8.938;2022-10-12T07:40:59;6.70;99.90
26691;DHT22;14307;51.718;8.938;2022-10-12T07:43:27;6.80;99.90
26691;DHT22;14307;51.718;8.938;2022-10-12T07:45:57;6.90;99.90
26691;DHT22;14307;51.718;8.938;2022-10-12T07:48:23;7.00;99.90
26691;DHT22;14307;51.718;8.938;2022-10-12T07:50:50;7.10;99.90
26691;DHT22;14307;51.718;8.938;2022-10-12T07:53:17;7.30;99.90
26691;DHT22;14307;51.718;8.938;2022-10-12T07:55:43;7.40;99.90
26691;DHT22;14307;51.718;8.938;2022-10-12T07:58:10;7.60;99.90
26691;DHT22;14307;51.718;8.938;2022-10-12T08:00:38;7.70;99.90
26691;DHT22;14307;51.718;8.938;2022-10-12T08:03:05;7.80;99.90
26691;DHT22;14307;51.718;8.938;2022-10-12T08:05:32;8.10;99.90
26691;DHT22;14307;51.718;8.938;2022-10-12T08:07:58;8.50;99.90
26691;DHT22;14307;51.718;8.938;2022-10-12T08:10:25;8.70;99.90
26691;DHT22;14307;51.718;8.938;2022-10-12T08:12:52;8.90;99.90
26691;DHT22;14307;51.718;8.938;2022-10-12T08:15:19;8.90;99.90
26691;DHT22;14307;51.718;8.938;2022-10-12T08:17:46;9.10;99.90
26691;DHT22;14307;51.718;8.938;2022-10-12T08:20:12;9.30;99.90
26691;DHT22;14307;51.718;8.938;2022-10-12T08:22:39;9.60;99.90
26691;DHT22;14307;51.718;8.938;2022-10-12T08:25:06;9.90;99.90
26691;DHT22;14307;51.718;8.938;2022-10-12T08:27:33;10.00;99.90
26691;DHT22;14307;51.718;8.938;2022-10-12T08:29:59;10.40;99.90
26691;DHT22;14307;51.718;8.938;2022-10-12T08:32:26;10.60;99.90
26691;DHT22;14307;51.718;8.938;2022-10-12T08:34:52;10.90;99.90
26691;DHT22;14307;51.718;8.938;2022-10-12T08:37:19;10.90;99.90
26691;DHT22;14307;51.718;8.938;2022-10-12T08:39:46;11.10;99.90
26691;DHT22;14307;51.718;8.938;2022-10-12T08:45:34;11.50;99.90
26691;DHT22;14307;51.718;8.938;2022-10-12T08:48:13;11.60;99.90
26691;DHT22;14307;51.718;8.938;2022-10-12T08:50:47;11.80;99.90
26691;DHT22;14307;51.718;8.938;2022-10-12T08:55:53;11.70;99.90
26691;DHT22;14307;51.718;8.938;2022-10-12T08:58:35;11.80;99.90
26691;DHT22;14307;51.718;8.938;2022-10-12T09:07:25;12.30;99.90
26691;DHT22;14307;51.718;8.938;2022-10-12T09:15:37;12.70;99.90
26691;DHT22;14307;51.718;8.938;2022-10-12T09:18:14;12.80;99.90
26691;DHT22;14307;51.718;8.938;2022-10-12T09:20:50;13.10;99.90
26691;DHT22;14307;51.718;8.938;2022-10-12T09:23:26;13.20;99.90
26691;DHT22;14307;51.718;8.938;2022-10-12T09:25:57;13.30;99.90
26691;DHT22;14307;51.718;8.938;2022-10-12T09:28:33;13.30;99.90
26691;DHT22;14307;51.718;8.938;2022-10-12T09:31:15;13.10;99.90
26691;DHT22;14307;51.718;8.938;2022-10-12T09:33:50;13.20;99.90
26691;DHT22;14307;51.718;8.938;2022-10-12T09:36:22;13.50;99.90
26691;DHT22;14307;51.718;8.938;2022-10-12T09:38:50;13.40;99.90
26691;DHT22;14307;51.718;8.938;2022-10-12T09:41:23;13.60;99.90
26691;DHT22;14307;51.718;8.938;2022-10-12T09:43:56;13.50;99.90
26691;DHT22;14307;51.718;8.938;2022-10-12T09:46:34;13.30;99.90
26691;DHT22;14307;51.718;8.938;2022-10-12T09:49:02;13.20;99.90
26691;DHT22;14307;51.718;8.938;2022-10-12T09:51:29;12.90;99.90
26691;DHT22;14307;51.718;8.938;2022-10-12T09:53:56;13.10;99.90
26691;DHT22;14307;51.718;8.938;2022-10-12T09:56:41;13.20;99.90
26691;DHT22;14307;51.718;8.938;2022-10-12T09:59:26;13.20;99.90
26691;DHT22;14307;51.718;8.938;2022-10-12T10:02:20;13.40;99.90
26691;DHT22;14307;51.718;8.938;2022-10-12T10:04:48;13.40;99.90
26691;DHT22;14307;51.718;8.938;2022-10-12T10:07:31;13.30;99.90
26691;DHT22;14307;51.718;8.938;2022-10-12T10:12:31;13.20;99.90
26691;DHT22;14307;51.718;8.938;2022-10-12T10:14:58;13.10;99.90
26691;DHT22;14307;51.718;8.938;2022-10-12T10:17:31;13.00;99.90
26691;DHT22;14307;51.718;8.938;2022-10-12T10:20:02;13.00;99.90
26691;DHT22;14307;51.718;8.938;2022-10-12T10:22:31;13.40;99.90
26691;DHT22;14307;51.718;8.938;2022-10-12T10:24:59;13.60;99.90
26691;DHT22;14307;51.718;8.938;2022-10-12T10:27:36;13.60;99.90
26691;DHT22;14307;51.718;8.938;2022-10-12T10:33:27;14.00;99.90
26691;DHT22;14307;51.718;8.938;2022-10-12T10:36:04;14.10;99.90
26691;DHT22;14307;51.718;8.938;2022-10-12T10:38:49;14.10;99.90
26691;DHT22;14307;51.718;8.938;2022-10-12T10:41:17;14.10;99.90
26691;DHT22;14307;51.718;8.938;2022-10-12T10:43:47;14.10;99.90
26691;DHT22;14307;51.718;8.938;2022-10-12T10:46:15;14.30;99.90
26691;DHT22;14307;51.718;8.938;2022-10-12T10:48:49;14.60;99.90
26691;DHT22;14307;51.718;8.938;2022-10-12T10:51:16;14.70;99.90
26691;DHT22;14307;51.718;8.938;2022-10-12T10:53:49;14.80;99.90
26691;DHT22;14307;51.718;8.938;2022-10-12T10:56:22;14.70;99.90
26691;DHT22;14307;51.718;8.938;2022-10-12T10:58:56;14.70;99.90
26691;DHT22;14307;51.718;8.938;2022-10-12T11:01:31;14.80;99.90
26691;DHT22;14307;51.718;8.938;2022-10-12T11:04:13;14.80;99.90
26691;DHT22;14307;51.718;8.938;2022-10-12T11:09:32;14.50;99.90
26691;DHT22;14307;51.718;8.938;2022-10-12T11:12:06;14.60;99.90
26691;DHT22;14307;51.718;8.938;2022-10-12T11:14:39;14.90;99.90
26691;DHT22;14307;51.718;8.938;2022-10-12T11:17:16;14.90;99.90
26691;DHT22;14307;51.718;8.938;2022-10-12T11:19:48;14.90;99.90
26691;DHT22;14307;51.718;8.938;2022-10-12T11:22:24;14.70;99.90
26691;DHT22;14307;51.718;8.938;2022-10-12T11:25:04;14.60;99.90
26691;DHT22;14307;51.718;8.938;2022-10-12T11:27:38;14.90;99.90
26691;DHT22;14307;51.718;8.938;2022-10-12T11:30:15;15.10;99.90
26691;DHT22;14307;51.718;8.938;2022-10-12T11:32:53;15.10;99.90
26691;DHT22;14307;51.718;8.938;2022-10-12T11:35:26;14.90;99.90
26691;DHT22;14307;51.718;8.938;2022-10-12T11:37:58;15.20;99.90
26691;DHT22;14307;51.718;8.938;2022-10-12T11:40:31;15.10;99.90
26691;DHT22;14307;51.718;8.938;2022-10-12T11:43:21;14.80;99.90
26691;DHT22;14307;51.718;8.938;2022-10-12T11:45:53;14.80;99.90
26691;DHT22;14307;51.718;8.938;2022-10-12T11:48:28;14.90;99.90
26691;DHT22;14307;51.718;8.938;2022-10-12T11:50:57;14.80;99.90
26691;DHT22;14307;51.718;8.938;2022-10-12T11:53:38;15.00;99.90
26691;DHT22;14307;51.718;8.938;2022-10-12T11:58:39;14.90;99.90
26691;DHT22;14307;51.718;8.938;2022-10-12T12:01:42;14.90;99.90
26691;DHT22;14307;51.718;8.938;2022-10-12T12:04:20;14.80;99.90
26691;DHT22;14307;51.718;8.938;2022-10-12T12:07:43;14.80;99.90
26691;DHT22;14307;51.718;8.938;2022-10-12T12:18:14;15.30;99.90
26691;DHT22;14307;51.718;8.938;2022-10-12T12:23:28;14.90;99.90
26691;DHT22;14307;51.718;8.938;2022-10-12T12:26:05;15.00;99.90
26691;DHT22;14307;51.718;8.938;2022-10-12T12:28:50;15.00;99.90
26691;DHT22;14307;51.718;8.938;2022-10-12T12:31:26;15.20;99.90
26691;DHT22;14307;51.718;8.938;2022-10-12T12:34:11;15.20;99.90
26691;DHT22;14307;51.718;8.938;2022-10-12T12:36:39;15.00;99.90
26691;DHT22;14307;51.718;8.938;2022-10-12T12:39:22;14.90;99.90
26691;DHT22;14307;51.718;8.938;2022-10-12T12:41:55;14.80;99.90
26691;DHT22;14307;51.718;8.938;2022-10-12T12:49:53;15.00;99.90
26691;DHT22;14307;51.718;8.938;2022-10-12T13:00:24;15.80;99.90
26691;DHT22;14307;51.718;8.938;2022-10-12T13:08:53;16.00;99.90
26691;DHT22;14307;51.718;8.938;2022-10-12T13:14:45;15.80;99.90
26691;DHT22;14307;51.718;8.938;2022-10-12T13:20:00;16.20;99.90
26691;DHT22;14307;51.718;8.938;2022-10-12T13:22:32;16.30;99.90
26691;DHT22;14307;51.718;8.938;2022-10-12T13:25:06;16.60;99.90
26691;DHT22;14307;51.718;8.938;2022-10-12T13:27:45;16.70;99.90
26691;DHT22;14307;51.718;8.938;2022-10-12T13:36:10;17.10;99.90
26691;DHT22;14307;51.718;8.938;2022-10-12T13:38:35;17.00;99.90
26691;DHT22;14307;51.718;8.938;2022-10-12T13:41:08;16.90;99.90
26691;DHT22;14307;51.718;8.938;2022-10-12T13:43:43;17.00;99.90
26691;DHT22;14307;51.718;8.938;2022-10-12T13:46:12;16.80;99.90
26691;DHT22;14307;51.718;8.938;2022-10-12T13:48:39;16.80;99.90
26691;DHT22;14307;51.718;8.938;2022-10-12T13:51:27;16.70;99.90
26691;DHT22;14307;51.718;8.938;2022-10-12T13:53:55;16.70;99.90
26691;DHT22;14307;51.718;8.938;2022-10-12T13:56:24;16.90;99.90
26691;DHT22;14307;51.718;8.938;2022-10-12T13:58:56;16.90;99.90
26691;DHT22;14307;51.718;8.938;2022-10-12T14:01:23;17.10;99.90
26691;DHT22;14307;51.718;8.938;2022-10-12T14:03:50;17.10;99.90
26691;DHT22;14307;51.718;8.938;2022-10-12T14:06:34;17.10;99.90
26691;DHT22;14307;51.718;8.938;2022-10-12T14:09:11;17.00;99.90
26691;DHT22;14307;51.718;8.938;2022-10-12T14:11:40;16.90;99.90
26691;DHT22;14307;51.718;8.938;2022-10-12T14:16:54;17.20;99.90
26691;DHT22;14307;51.718;8.938;2022-10-12T14:21:58;16.90;99.90
26691;DHT22;14307;51.718;8.938;2022-10-12T14:24:25;16.80;99.90
26691;DHT22;14307;51.718;8.938;2022-10-12T14:26:59;16.50;99.90
26691;DHT22;14307;51.718;8.938;2022-10-12T14:29:43;16.10;99.90
26691;DHT22;14307;51.718;8.938;2022-10-12T14:34:41;15.80;99.90
26691;DHT22;14307;51.718;8.938;2022-10-12T14:39:35;15.60;99.90
26691;DHT22;14307;51.718;8.938;2022-10-12T14:42:03;15.50;99.90
26691;DHT22;14307;51.718;8.938;2022-10-12T14:44:44;15.40;99.90
26691;DHT22;14307;51.718;8.938;2022-10-12T14:49:50;15.20;99.90
26691;DHT22;14307;51.718;8.938;2022-10-12T14:52:31;15.10;99.90
26691;DHT22;14307;51.718;8.938;2022-10-12T14:54:59;15.10;99.90
26691;DHT22;14307;51.718;8.938;2022-10-12T14:57:28;15.20;99.90
26691;DHT22;14307;51.718;8.938;2022-10-12T14:59:55;15.20;99.90
26691;DHT22;14307;51.718;8.938;2022-10-12T15:02:29;15.10;99.90
26691;DHT22;14307;51.718;8.938;2022-10-12T15:04:56;15.30;99.90
26691;DHT22;14307;51.718;8.938;2022-10-12T15:07:29;15.10;99.90
26691;DHT22;14307;51.718;8.938;2022-10-12T15:09:57;15.00;99.90
26691;DHT22;14307;51.718;8.938;2022-10-12T15:12:24;15.00;99.90
26691;DHT22;14307;51.718;8.938;2022-10-12T15:14:54;15.00;99.90
26691;DHT22;14307;51.718;8.938;2022-10-12T15:17:21;15.10;99.90
26691;DHT22;14307;51.718;8.938;2022-10-12T15:19:49;15.10;99.90
26691;DHT22;14307;51.718;8.938;2022-10-12T15:22:22;15.00;99.90
26691;DHT22;14307;51.718;8.938;2022-10-12T15:24:49;14.90;99.90
26691;DHT22;14307;51.718;8.938;2022-10-12T15:27:17;14.80;99.90
26691;DHT22;14307;51.718;8.938;2022-10-12T15:29:43;14.70;99.90
26691;DHT22;14307;51.718;8.938;2022-10-12T15:32:13;14.60;99.90
26691;DHT22;14307;51.718;8.938;2022-10-12T15:34:40;14.50;99.90
26691;DHT22;14307;51.718;8.938;2022-10-12T15:37:07;14.50;99.90
26691;DHT22;14307;51.718;8.938;2022-10-12T15:39:35;14.50;99.90
26691;DHT22;14307;51.718;8.938;2022-10-12T15:42:02;14.30;99.90
26691;DHT22;14307;51.718;8.938;2022-10-12T15:44:28;14.20;99.90
26691;DHT22;14307;51.718;8.938;2022-10-12T15:46:55;14.20;99.90
26691;DHT22;14307;51.718;8.938;2022-10-12T15:49:22;14.10;99.90
26691;DHT22;14307;51.718;8.938;2022-10-12T15:51:52;14.10;99.90
26691;DHT22;14307;51.718;8.938;2022-10-12T15:54:20;14.10;99.90
26691;DHT22;14307;51.718;8.938;2022-10-12T15:56:47;14.10;99.90
26691;DHT22;14307;51.718;8.938;2022-10-12T15:59:14;14.00;99.90
26691;DHT22;14307;51.718;8.938;2022-10-12T16:01:41;13.90;99.90
26691;DHT22;14307;51.718;8.938;2022-10-12T16:04:12;13.90;99.90
26691;DHT22;14307;51.718;8.938;2022-10-12T16:06:38;13.80;99.90
26691;DHT22;14307;51.718;8.938;2022-10-12T16:09:05;13.80;99.90
26691;DHT22;14307;51.718;8.938;2022-10-12T16:11:32;13.80;99.90
26691;DHT22;14307;51.718;8.938;2022-10-12T16:13:58;13.60;99.90
26691;DHT22;14307;51.718;8.938;2022-10-12T16:16:25;13.60;99.90
26691;DHT22;14307;51.718;8.938;2022-10-12T16:18:52;13.50;99.90
26691;DHT22;14307;51.718;8.938;2022-10-12T16:21:19;13.50;99.90
26691;DHT22;14307;51.718;8.938;2022-10-12T16:23:46;13.40;99.90
26691;DHT22;14307;51.718;8.938;2022-10-12T16:26:13;13.20;99.90
26691;DHT22;14307;51.718;8.938;2022-10-12T16:28:40;13.10;99.90
26691;DHT22;14307;51.718;8.938;2022-10-12T16:31:12;13.00;99.90
26691;DHT22;14307;51.718;8.938;2022-10-12T16:33:40;12.80;99.90
26691;DHT22;14307;51.718;8.938;2022-10-12T16:36:09;12.70;99.90
26691;DHT22;14307;51.718;8.938;2022-10-12T16:38:36;12.50;99.90
26691;DHT22;14307;51.718;8.938;2022-10-12T16:41:10;12.50;99.90
26691;DHT22;14307;51.718;8.938;2022-10-12T16:43:37;12.20;99.90
26691;DHT22;14307;51.718;8.938;2022-10-12T16:46:04;12.10;99.90
26691;DHT22;14307;51.718;8.938;2022-10-12T16:48:31;11.90;99.90
26691;DHT22;14307;51.718;8.938;2022-10-12T16:50:57;11.70;99.90
26691;DHT22;14307;51.718;8.938;2022-10-12T16:53:24;11.60;99.90
26691;DHT22;14307;51.718;8.938;2022-10-12T16:55:51;11.50;99.90
26691;DHT22;14307;51.718;8.938;2022-10-12T16:58:18;11.20;99.90
26691;DHT22;14307;51.718;8.938;2022-10-12T17:00:44;11.00;99.90
26691;DHT22;14307;51.718;8.938;2022-10-12T17:03:11;11.00;99.90
26691;DHT22;14307;51.718;8.938;2022-10-12T17:05:40;10.90;99.90
26691;DHT22;14307;51.718;8.938;2022-10-12T17:08:07;10.70;99.90
26691;DHT22;14307;51.718;8.938;2022-10-12T17:10:43;10.60;99.90
26691;DHT22;14307;51.718;8.938;2022-10-12T17:13:10;10.50;99.90
26691;DHT22;14307;51.718;8.938;2022-10-12T17:15:40;10.30;99.90
26691;DHT22;14307;51.718;8.938;2022-10-12T17:18:07;10.30;99.90
26691;DHT22;14307;51.718;8.938;2022-10-12T17:20:35;10.10;99.90
26691;DHT22;14307;51.718;8.938;2022-10-12T17:23:02;10.00;99.90
26691;DHT22;14307;51.718;8.938;2022-10-12T17:25:29;10.00;99.90
26691;DHT22;14307;51.718;8.938;2022-10-12T17:27:55;10.00;99.90
26691;DHT22;14307;51.718;8.938;2022-10-12T17:30:22;9.90;99.90
26691;DHT22;14307;51.718;8.938;2022-10-12T17:32:49;9.80;99.90
26691;DHT22;14307;51.718;8.938;2022-10-12T17:35:16;9.60;99.90
26691;DHT22;14307;51.718;8.938;2022-10-12T17:37:42;9.40;99.90
26691;DHT22;14307;51.718;8.938;2022-10-12T17:40:09;9.30;99.90
26691;DHT22;14307;51.718;8.938;2022-10-12T17:42:36;9.30;99.90
26691;DHT22;14307;51.718;8.938;2022-10-12T17:45:03;9.20;99.90
26691;DHT22;14307;51.718;8.938;2022-10-12T17:47:30;9.20;99.90
26691;DHT22;14307;51.718;8.938;2022-10-12T17:49:56;9.10;99.90
26691;DHT22;14307;51.718;8.938;2022-10-12T17:52:23;9.00;99.90
26691;DHT22;14307;51.718;8.938;2022-10-12T17:54:50;8.90;99.90